Terminal Aerodrome Forecast
Issued by NWS Blacksburg, VA

Current Version | Previous Version | Graphics & Text | Print | Product List | Glossary On
Versions: 1 2 3 4 5 6 7 8 9 10 11 12 13
000
FTUS41 KRNK 221722
TAFBLF
TAF
KBLF 221722Z 2218/2318 10005KT P6SM SCT025 BKN250
     FM222300 00000KT P6SM SCT250
     FM231300 28007KT P6SM SCT050=

USA.gov is the U.S. government's official web portal to all federal, state and local government web resources and services.